sensor_id;sensor_type;location;lat;lon;timestamp;temperature;humidity
47861;HTU21D;33620;52.340;5.984;2022-07-24T00:00:04;19.47;70.94
47861;HTU21D;33620;52.340;5.984;2022-07-24T00:02:30;19.47;71.32
47861;HTU21D;33620;52.340;5.984;2022-07-24T00:04:56;19.45;71.14
47861;HTU21D;33620;52.340;5.984;2022-07-24T00:07:22;19.40;71.49
47861;HTU21D;33620;52.340;5.984;2022-07-24T00:09:47;19.39;71.77
47861;HTU21D;33620;52.340;5.984;2022-07-24T00:12:13;19.37;71.62
47861;HTU21D;33620;52.340;5.984;2022-07-24T00:14:38;19.35;71.48
47861;HTU21D;33620;52.340;5.984;2022-07-24T00:17:04;19.33;71.70
47861;HTU21D;33620;52.340;5.984;2022-07-24T00:19:29;19.33;72.01
47861;HTU21D;33620;52.340;5.984;2022-07-24T00:21:54;19.37;72.06
47861;HTU21D;33620;52.340;5.984;2022-07-24T00:24:22;19.37;72.14
47861;HTU21D;33620;52.340;5.984;2022-07-24T00:26:47;19.33;72.05
47861;HTU21D;33620;52.340;5.984;2022-07-24T00:29:13;19.33;72.38
47861;HTU21D;33620;52.340;5.984;2022-07-24T00:31:38;19.29;72.41
47861;HTU21D;33620;52.340;5.984;2022-07-24T00:34:03;19.26;72.45
47861;HTU21D;33620;52.340;5.984;2022-07-24T00:36:29;19.23;72.43
47861;HTU21D;33620;52.340;5.984;2022-07-24T00:38:54;19.21;72.45
47861;HTU21D;33620;52.340;5.984;2022-07-24T00:41:19;19.18;72.49
47861;HTU21D;33620;52.340;5.984;2022-07-24T00:44:05;19.16;72.50
47861;HTU21D;33620;52.340;5.984;2022-07-24T00:46:32;19.14;72.76
47861;HTU21D;33620;52.340;5.984;2022-07-24T00:48:57;19.15;72.51
47861;HTU21D;33620;52.340;5.984;2022-07-24T00:51:23;19.11;72.73
47861;HTU21D;33620;52.340;5.984;2022-07-24T00:53:48;19.08;72.75
47861;HTU21D;33620;52.340;5.984;2022-07-24T00:56:14;19.06;72.65
47861;HTU21D;33620;52.340;5.984;2022-07-24T00:58:39;19.06;72.71
47861;HTU21D;33620;52.340;5.984;2022-07-24T01:01:05;19.03;72.83
47861;HTU21D;33620;52.340;5.984;2022-07-24T01:03:30;19.02;72.85
47861;HTU21D;33620;52.340;5.984;2022-07-24T01:05:56;19.01;73.06
47861;HTU21D;33620;52.340;5.984;2022-07-24T01:08:22;19.00;72.94
47861;HTU21D;33620;52.340;5.984;2022-07-24T01:10:48;18.94;73.25
47861;HTU21D;33620;52.340;5.984;2022-07-24T01:13:13;18.94;73.23
47861;HTU21D;33620;52.340;5.984;2022-07-24T01:15:39;18.93;73.20
47861;HTU21D;33620;52.340;5.984;2022-07-24T01:18:04;18.92;73.12
47861;HTU21D;33620;52.340;5.984;2022-07-24T01:20:30;18.89;73.07
47861;HTU21D;33620;52.340;5.984;2022-07-24T01:22:55;18.88;73.05
47861;HTU21D;33620;52.340;5.984;2022-07-24T01:25:21;18.87;73.18
47861;HTU21D;33620;52.340;5.984;2022-07-24T01:27:46;18.85;73.10
47861;HTU21D;33620;52.340;5.984;2022-07-24T01:30:12;18.80;73.22
47861;HTU21D;33620;52.340;5.984;2022-07-24T01:32:37;18.80;73.47
47861;HTU21D;33620;52.340;5.984;2022-07-24T01:35:03;18.81;73.26
47861;HTU21D;33620;52.340;5.984;2022-07-24T01:37:29;18.82;73.25
47861;HTU21D;33620;52.340;5.984;2022-07-24T01:39:54;18.82;73.25
47861;HTU21D;33620;52.340;5.984;2022-07-24T01:42:20;18.78;73.32
47861;HTU21D;33620;52.340;5.984;2022-07-24T01:44:46;18.79;73.34
47861;HTU21D;33620;52.340;5.984;2022-07-24T01:47:11;18.78;73.34
47861;HTU21D;33620;52.340;5.984;2022-07-24T01:49:37;18.77;73.41
47861;HTU21D;33620;52.340;5.984;2022-07-24T01:52:02;18.78;73.37
47861;HTU21D;33620;52.340;5.984;2022-07-24T01:54:28;18.78;73.34
47861;HTU21D;33620;52.340;5.984;2022-07-24T01:56:53;18.74;73.44
47861;HTU21D;33620;52.340;5.984;2022-07-24T01:59:18;18.72;73.39
47861;HTU21D;33620;52.340;5.984;2022-07-24T02:01:44;18.71;73.43
47861;HTU21D;33620;52.340;5.984;2022-07-24T02:04:09;18.71;73.36
47861;HTU21D;33620;52.340;5.984;2022-07-24T02:06:35;18.71;73.50
47861;HTU21D;33620;52.340;5.984;2022-07-24T02:09:01;18.69;73.53
47861;HTU21D;33620;52.340;5.984;2022-07-24T02:11:26;18.66;73.55
47861;HTU21D;33620;52.340;5.984;2022-07-24T02:13:51;18.65;73.55
47861;HTU21D;33620;52.340;5.984;2022-07-24T02:16:18;18.64;73.49
47861;HTU21D;33620;52.340;5.984;2022-07-24T02:18:44;18.61;73.60
47861;HTU21D;33620;52.340;5.984;2022-07-24T02:21:09;18.62;73.67
47861;HTU21D;33620;52.340;5.984;2022-07-24T02:23:35;18.58;73.76
47861;HTU21D;33620;52.340;5.984;2022-07-24T02:26:01;18.57;73.77
47861;HTU21D;33620;52.340;5.984;2022-07-24T02:28:27;18.58;73.77
47861;HTU21D;33620;52.340;5.984;2022-07-24T02:30:52;18.54;73.77
47861;HTU21D;33620;52.340;5.984;2022-07-24T02:33:17;18.53;73.91
47861;HTU21D;33620;52.340;5.984;2022-07-24T02:35:43;18.52;73.94
47861;HTU21D;33620;52.340;5.984;2022-07-24T02:38:08;18.51;74.01
47861;HTU21D;33620;52.340;5.984;2022-07-24T02:40:34;18.48;73.94
47861;HTU21D;33620;52.340;5.984;2022-07-24T02:42:59;18.47;74.08
47861;HTU21D;33620;52.340;5.984;2022-07-24T02:45:25;18.46;74.21
47861;HTU21D;33620;52.340;5.984;2022-07-24T02:47:53;18.44;74.31
47861;HTU21D;33620;52.340;5.984;2022-07-24T02:50:20;18.43;74.29
47861;HTU21D;33620;52.340;5.984;2022-07-24T02:52:46;18.40;74.34
47861;HTU21D;33620;52.340;5.984;2022-07-24T02:55:11;18.38;74.43
47861;HTU21D;33620;52.340;5.984;2022-07-24T02:57:37;18.40;74.26
47861;HTU21D;33620;52.340;5.984;2022-07-24T03:00:07;18.39;74.14
47861;HTU21D;33620;52.340;5.984;2022-07-24T03:02:34;18.38;74.30
47861;HTU21D;33620;52.340;5.984;2022-07-24T03:04:59;18.35;74.44
47861;HTU21D;33620;52.340;5.984;2022-07-24T03:07:26;18.36;74.47
47861;HTU21D;33620;52.340;5.984;2022-07-24T03:09:51;18.35;74.50
47861;HTU21D;33620;52.340;5.984;2022-07-24T03:12:16;18.34;74.52
47861;HTU21D;33620;52.340;5.984;2022-07-24T03:14:42;18.34;74.53
47861;HTU21D;33620;52.340;5.984;2022-07-24T03:17:07;18.34;74.49
47861;HTU21D;33620;52.340;5.984;2022-07-24T03:19:33;18.30;74.64
47861;HTU21D;33620;52.340;5.984;2022-07-24T03:21:58;18.27;74.64
47861;HTU21D;33620;52.340;5.984;2022-07-24T03:24:23;18.27;74.70
47861;HTU21D;33620;52.340;5.984;2022-07-24T03:26:49;18.23;74.76
47861;HTU21D;33620;52.340;5.984;2022-07-24T03:29:14;18.22;74.88
47861;HTU21D;33620;52.340;5.984;2022-07-24T03:31:39;18.21;74.89
47861;HTU21D;33620;52.340;5.984;2022-07-24T03:34:05;18.20;74.94
47861;HTU21D;33620;52.340;5.984;2022-07-24T03:36:31;18.19;74.89
47861;HTU21D;33620;52.340;5.984;2022-07-24T03:38:57;18.20;75.15
47861;HTU21D;33620;52.340;5.984;2022-07-24T03:41:23;18.22;75.04
47861;HTU21D;33620;52.340;5.984;2022-07-24T03:43:48;18.20;74.92
47861;HTU21D;33620;52.340;5.984;2022-07-24T03:46:13;18.19;74.96
47861;HTU21D;33620;52.340;5.984;2022-07-24T03:48:39;18.15;75.04
47861;HTU21D;33620;52.340;5.984;2022-07-24T03:51:04;18.12;74.98
47861;HTU21D;33620;52.340;5.984;2022-07-24T03:53:30;18.13;75.07
47861;HTU21D;33620;52.340;5.984;2022-07-24T03:55:55;18.14;74.88
47861;HTU21D;33620;52.340;5.984;2022-07-24T03:58:21;18.13;74.99
47861;HTU21D;33620;52.340;5.984;2022-07-24T04:00:46;18.14;74.99
47861;HTU21D;33620;52.340;5.984;2022-07-24T04:03:11;18.13;75.02
47861;HTU21D;33620;52.340;5.984;2022-07-24T04:05:37;18.10;75.10
47861;HTU21D;33620;52.340;5.984;2022-07-24T04:08:02;18.10;75.28
47861;HTU21D;33620;52.340;5.984;2022-07-24T04:10:27;18.08;75.38
47861;HTU21D;33620;52.340;5.984;2022-07-24T04:12:53;18.07;75.50
47861;HTU21D;33620;52.340;5.984;2022-07-24T04:15:18;18.07;75.63
47861;HTU21D;33620;52.340;5.984;2022-07-24T04:17:44;18.05;75.70
47861;HTU21D;33620;52.340;5.984;2022-07-24T04:20:10;18.05;75.68
47861;HTU21D;33620;52.340;5.984;2022-07-24T04:22:35;18.03;75.64
47861;HTU21D;33620;52.340;5.984;2022-07-24T04:25:02;18.03;75.86
47861;HTU21D;33620;52.340;5.984;2022-07-24T04:27:27;18.04;75.99
47861;HTU21D;33620;52.340;5.984;2022-07-24T04:29:53;18.04;76.00
47861;HTU21D;33620;52.340;5.984;2022-07-24T04:32:18;18.02;75.95
47861;HTU21D;33620;52.340;5.984;2022-07-24T04:34:43;17.99;75.85
47861;HTU21D;33620;52.340;5.984;2022-07-24T04:37:09;17.97;75.98
47861;HTU21D;33620;52.340;5.984;2022-07-24T04:39:34;17.94;76.05
47861;HTU21D;33620;52.340;5.984;2022-07-24T04:41:59;17.93;76.18
47861;HTU21D;33620;52.340;5.984;2022-07-24T04:44:25;17.91;76.15
47861;HTU21D;33620;52.340;5.984;2022-07-24T04:46:50;17.91;76.27
47861;HTU21D;33620;52.340;5.984;2022-07-24T04:49:15;17.89;76.31
47861;HTU21D;33620;52.340;5.984;2022-07-24T04:51:41;17.88;76.31
47861;HTU21D;33620;52.340;5.984;2022-07-24T04:54:06;17.88;76.48
47861;HTU21D;33620;52.340;5.984;2022-07-24T04:56:32;17.87;76.67
47861;HTU21D;33620;52.340;5.984;2022-07-24T04:58:58;17.87;76.73
47861;HTU21D;33620;52.340;5.984;2022-07-24T05:01:24;17.87;76.78
47861;HTU21D;33620;52.340;5.984;2022-07-24T05:03:49;17.85;76.92
47861;HTU21D;33620;52.340;5.984;2022-07-24T05:06:15;17.87;77.04
47861;HTU21D;33620;52.340;5.984;2022-07-24T05:08:40;17.85;77.11
47861;HTU21D;33620;52.340;5.984;2022-07-24T05:11:05;17.85;77.24
47861;HTU21D;33620;52.340;5.984;2022-07-24T05:13:31;17.87;77.43
47861;HTU21D;33620;52.340;5.984;2022-07-24T05:15:56;17.91;77.41
47861;HTU21D;33620;52.340;5.984;2022-07-24T05:18:22;17.94;77.35
47861;HTU21D;33620;52.340;5.984;2022-07-24T05:20:47;17.95;77.31
47861;HTU21D;33620;52.340;5.984;2022-07-24T05:23:12;17.98;77.41
47861;HTU21D;33620;52.340;5.984;2022-07-24T05:25:38;17.98;77.45
47861;HTU21D;33620;52.340;5.984;2022-07-24T05:28:03;17.99;77.60
47861;HTU21D;33620;52.340;5.984;2022-07-24T05:30:29;18.03;77.62
47861;HTU21D;33620;52.340;5.984;2022-07-24T05:32:55;18.05;77.76
47861;HTU21D;33620;52.340;5.984;2022-07-24T05:35:20;18.09;77.74
47861;HTU21D;33620;52.340;5.984;2022-07-24T05:37:45;18.10;77.60
47861;HTU21D;33620;52.340;5.984;2022-07-24T05:40:11;18.12;77.81
47861;HTU21D;33620;52.340;5.984;2022-07-24T05:42:37;18.20;77.75
47861;HTU21D;33620;52.340;5.984;2022-07-24T05:45:03;18.24;77.60
47861;HTU21D;33620;52.340;5.984;2022-07-24T05:47:35;18.29;77.56
47861;HTU21D;33620;52.340;5.984;2022-07-24T05:50:01;18.34;77.44
47861;HTU21D;33620;52.340;5.984;2022-07-24T05:52:26;18.38;77.43
47861;HTU21D;33620;52.340;5.984;2022-07-24T05:54:51;18.42;77.42
47861;HTU21D;33620;52.340;5.984;2022-07-24T05:57:17;18.46;77.44
47861;HTU21D;33620;52.340;5.984;2022-07-24T05:59:42;18.52;77.50
47861;HTU21D;33620;52.340;5.984;2022-07-24T06:02:08;18.55;77.01
47861;HTU21D;33620;52.340;5.984;2022-07-24T06:04:33;18.61;77.06
47861;HTU21D;33620;52.340;5.984;2022-07-24T06:07:00;18.68;76.82
47861;HTU21D;33620;52.340;5.984;2022-07-24T06:09:26;18.73;76.81
47861;HTU21D;33620;52.340;5.984;2022-07-24T06:11:51;18.76;76.88
47861;HTU21D;33620;52.340;5.984;2022-07-24T06:14:17;18.82;76.83
47861;HTU21D;33620;52.340;5.984;2022-07-24T06:16:42;18.85;76.82
47861;HTU21D;33620;52.340;5.984;2022-07-24T06:19:07;18.87;77.02
47861;HTU21D;33620;52.340;5.984;2022-07-24T06:21:33;18.91;77.11
47861;HTU21D;33620;52.340;5.984;2022-07-24T06:23:58;18.94;77.17
47861;HTU21D;33620;52.340;5.984;2022-07-24T06:26:23;18.99;77.27
47861;HTU21D;33620;52.340;5.984;2022-07-24T06:28:49;19.03;77.30
47861;HTU21D;33620;52.340;5.984;2022-07-24T06:31:14;19.09;77.32
47861;HTU21D;33620;52.340;5.984;2022-07-24T06:33:39;19.13;77.23
47861;HTU21D;33620;52.340;5.984;2022-07-24T06:36:05;19.17;77.10
47861;HTU21D;33620;52.340;5.984;2022-07-24T06:38:31;19.23;77.10
47861;HTU21D;33620;52.340;5.984;2022-07-24T06:40:56;19.28;77.01
47861;HTU21D;33620;52.340;5.984;2022-07-24T06:43:21;19.35;76.94
47861;HTU21D;33620;52.340;5.984;2022-07-24T06:45:47;19.38;76.87
47861;HTU21D;33620;52.340;5.984;2022-07-24T06:48:13;19.43;76.70
47861;HTU21D;33620;52.340;5.984;2022-07-24T06:50:38;19.48;76.73
47861;HTU21D;33620;52.340;5.984;2022-07-24T06:53:04;19.55;76.59
47861;HTU21D;33620;52.340;5.984;2022-07-24T06:55:29;19.59;76.37
47861;HTU21D;33620;52.340;5.984;2022-07-24T06:57:55;19.63;76.05
47861;HTU21D;33620;52.340;5.984;2022-07-24T07:00:20;19.69;75.79
47861;HTU21D;33620;52.340;5.984;2022-07-24T07:02:45;19.73;74.82
47861;HTU21D;33620;52.340;5.984;2022-07-24T07:05:11;19.77;71.60
47861;HTU21D;33620;52.340;5.984;2022-07-24T07:07:37;19.87;70.85
47861;HTU21D;33620;52.340;5.984;2022-07-24T07:10:04;19.97;70.85
47861;HTU21D;33620;52.340;5.984;2022-07-24T07:12:30;20.01;69.58
47861;HTU21D;33620;52.340;5.984;2022-07-24T07:14:55;20.04;68.94
47861;HTU21D;33620;52.340;5.984;2022-07-24T07:17:23;20.09;68.06
47861;HTU21D;33620;52.340;5.984;2022-07-24T07:19:48;20.16;67.46
47861;HTU21D;33620;52.340;5.984;2022-07-24T07:22:13;20.24;67.29
47861;HTU21D;33620;52.340;5.984;2022-07-24T07:24:39;20.30;66.69
47861;HTU21D;33620;52.340;5.984;2022-07-24T07:27:04;20.37;66.78
47861;HTU21D;33620;52.340;5.984;2022-07-24T07:29:29;20.48;65.84
47861;HTU21D;33620;52.340;5.984;2022-07-24T07:31:55;20.56;65.21
47861;HTU21D;33620;52.340;5.984;2022-07-24T07:34:20;20.73;64.28
47861;HTU21D;33620;52.340;5.984;2022-07-24T07:36:46;20.85;64.84
47861;HTU21D;33620;52.340;5.984;2022-07-24T07:39:11;20.93;63.86
47861;HTU21D;33620;52.340;5.984;2022-07-24T07:41:36;21.00;63.81
47861;HTU21D;33620;52.340;5.984;2022-07-24T07:44:02;21.05;63.51
47861;HTU21D;33620;52.340;5.984;2022-07-24T07:46:28;21.07;63.48
47861;HTU21D;33620;52.340;5.984;2022-07-24T07:48:54;21.14;62.50
47861;HTU21D;33620;52.340;5.984;2022-07-24T07:51:20;21.19;62.21
47861;HTU21D;33620;52.340;5.984;2022-07-24T07:53:45;21.25;62.66
47861;HTU21D;33620;52.340;5.984;2022-07-24T07:56:10;21.30;62.66
47861;HTU21D;33620;52.340;5.984;2022-07-24T07:58:36;21.33;62.26
47861;HTU21D;33620;52.340;5.984;2022-07-24T08:01:01;21.45;62.88
47861;HTU21D;33620;52.340;5.984;2022-07-24T08:03:27;21.49;61.22
47861;HTU21D;33620;52.340;5.984;2022-07-24T08:05:52;21.54;61.94
47861;HTU21D;33620;52.340;5.984;2022-07-24T08:08:18;21.59;61.28
47861;HTU21D;33620;52.340;5.984;2022-07-24T08:10:43;21.65;61.38
47861;HTU21D;33620;52.340;5.984;2022-07-24T08:13:09;21.75;61.57
47861;HTU21D;33620;52.340;5.984;2022-07-24T08:15:34;21.83;60.99
47861;HTU21D;33620;52.340;5.984;2022-07-24T08:18:00;21.93;60.73
47861;HTU21D;33620;52.340;5.984;2022-07-24T08:20:26;22.03;60.53
47861;HTU21D;33620;52.340;5.984;2022-07-24T08:22:52;22.13;60.00
47861;HTU21D;33620;52.340;5.984;2022-07-24T08:25:18;22.26;58.80
47861;HTU21D;33620;52.340;5.984;2022-07-24T08:27:44;22.39;58.37
47861;HTU21D;33620;52.340;5.984;2022-07-24T08:30:11;22.51;57.41
47861;HTU21D;33620;52.340;5.984;2022-07-24T08:32:36;22.64;57.92
47861;HTU21D;33620;52.340;5.984;2022-07-24T08:35:03;22.82;57.95
47861;HTU21D;33620;52.340;5.984;2022-07-24T08:37:29;23.01;57.19
47861;HTU21D;33620;52.340;5.984;2022-07-24T08:39:54;23.18;56.45
47861;HTU21D;33620;52.340;5.984;2022-07-24T08:42:21;23.24;57.19
47861;HTU21D;33620;52.340;5.984;2022-07-24T08:44:47;23.29;57.48
47861;HTU21D;33620;52.340;5.984;2022-07-24T08:47:14;23.42;56.78
47861;HTU21D;33620;52.340;5.984;2022-07-24T08:49:40;23.55;55.78
47861;HTU21D;33620;52.340;5.984;2022-07-24T08:52:06;23.65;54.78
47861;HTU21D;33620;52.340;5.984;2022-07-24T08:54:34;23.66;54.47
47861;HTU21D;33620;52.340;5.984;2022-07-24T08:57:01;23.87;55.00
47861;HTU21D;33620;52.340;5.984;2022-07-24T08:59:27;23.97;55.19
47861;HTU21D;33620;52.340;5.984;2022-07-24T09:01:53;24.12;54.77
47861;HTU21D;33620;52.340;5.984;2022-07-24T09:04:41;24.27;53.68
47861;HTU21D;33620;52.340;5.984;2022-07-24T09:07:13;24.35;52.30
47861;HTU21D;33620;52.340;5.984;2022-07-24T09:09:40;24.48;51.68
47861;HTU21D;33620;52.340;5.984;2022-07-24T09:12:17;24.63;51.40
47861;HTU21D;33620;52.340;5.984;2022-07-24T09:14:44;24.73;51.62
47861;HTU21D;33620;52.340;5.984;2022-07-24T09:17:18;24.88;51.79
47861;HTU21D;33620;52.340;5.984;2022-07-24T09:19:54;25.03;50.24
47861;HTU21D;33620;52.340;5.984;2022-07-24T09:25:04;25.27;51.01
47861;HTU21D;33620;52.340;5.984;2022-07-24T09:27:30;25.40;51.73
47861;HTU21D;33620;52.340;5.984;2022-07-24T09:29:55;25.49;50.09
47861;HTU21D;33620;52.340;5.984;2022-07-24T09:32:24;25.39;51.24
47861;HTU21D;33620;52.340;5.984;2022-07-24T09:34:53;25.50;50.98
47861;HTU21D;33620;52.340;5.984;2022-07-24T09:37:20;25.57;50.56
47861;HTU21D;33620;52.340;5.984;2022-07-24T09:39:46;25.65;49.43
47861;HTU21D;33620;52.340;5.984;2022-07-24T09:42:12;25.74;49.91
47861;HTU21D;33620;52.340;5.984;2022-07-24T09:44:38;25.79;50.20
47861;HTU21D;33620;52.340;5.984;2022-07-24T09:47:05;25.89;49.21
47861;HTU21D;33620;52.340;5.984;2022-07-24T09:49:32;26.07;48.86
47861;HTU21D;33620;52.340;5.984;2022-07-24T09:52:11;26.16;47.87
47861;HTU21D;33620;52.340;5.984;2022-07-24T09:54:55;26.22;46.77
47861;HTU21D;33620;52.340;5.984;2022-07-24T09:57:27;26.24;47.40
47861;HTU21D;33620;52.340;5.984;2022-07-24T10:02:22;26.39;46.88
47861;HTU21D;33620;52.340;5.984;2022-07-24T10:04:50;26.45;46.45
47861;HTU21D;33620;52.340;5.984;2022-07-24T10:07:18;26.54;46.57
47861;HTU21D;33620;52.340;5.984;2022-07-24T10:09:47;26.64;47.25
47861;HTU21D;33620;52.340;5.984;2022-07-24T10:12:18;26.80;47.11
47861;HTU21D;33620;52.340;5.984;2022-07-24T10:14:45;26.83;44.78
47861;HTU21D;33620;52.340;5.984;2022-07-24T10:17:12;26.79;43.64
47861;HTU21D;33620;52.340;5.984;2022-07-24T10:19:46;26.90;44.70
47861;HTU21D;33620;52.340;5.984;2022-07-24T10:22:20;26.94;43.87
47861;HTU21D;33620;52.340;5.984;2022-07-24T10:27:32;26.97;43.74
47861;HTU21D;33620;52.340;5.984;2022-07-24T10:30:04;26.93;43.90
47861;HTU21D;33620;52.340;5.984;2022-07-24T10:32:31;26.95;44.13
47861;HTU21D;33620;52.340;5.984;2022-07-24T10:35:11;26.89;44.01
47861;HTU21D;33620;52.340;5.984;2022-07-24T10:40:24;27.02;44.37
47861;HTU21D;33620;52.340;5.984;2022-07-24T10:45:35;27.24;43.06
47861;HTU21D;33620;52.340;5.984;2022-07-24T10:53:44;27.25;42.49
47861;HTU21D;33620;52.340;5.984;2022-07-24T10:56:18;27.36;42.17
47861;HTU21D;33620;52.340;5.984;2022-07-24T10:59:06;27.39;43.74
47861;HTU21D;33620;52.340;5.984;2022-07-24T11:04:01;27.63;43.30
47861;HTU21D;33620;52.340;5.984;2022-07-24T11:06:46;27.63;42.93
47861;HTU21D;33620;52.340;5.984;2022-07-24T11:09:12;27.73;42.88
47861;HTU21D;33620;52.340;5.984;2022-07-24T11:11:48;27.79;42.73
47861;HTU21D;33620;52.340;5.984;2022-07-24T11:17:37;27.87;41.48
47861;HTU21D;33620;52.340;5.984;2022-07-24T11:20:19;27.97;42.37
47861;HTU21D;33620;52.340;5.984;2022-07-24T11:22:54;28.11;41.89
47861;HTU21D;33620;52.340;5.984;2022-07-24T11:25:29;28.24;40.98
47861;HTU21D;33620;52.340;5.984;2022-07-24T11:28:12;28.04;39.61
47861;HTU21D;33620;52.340;5.984;2022-07-24T11:30:42;28.04;40.88
47861;HTU21D;33620;52.340;5.984;2022-07-24T11:33:09;28.21;42.20
47861;HTU21D;33620;52.340;5.984;2022-07-24T11:35:36;28.30;40.56
47861;HTU21D;33620;52.340;5.984;2022-07-24T11:38:05;28.38;40.44
47861;HTU21D;33620;52.340;5.984;2022-07-24T11:40:32;28.41;40.04
47861;HTU21D;33620;52.340;5.984;2022-07-24T11:43:00;28.47;40.26
47861;HTU21D;33620;52.340;5.984;2022-07-24T11:45:26;28.59;41.17
47861;HTU21D;33620;52.340;5.984;2022-07-24T11:47:51;28.68;40.77
47861;HTU21D;33620;52.340;5.984;2022-07-24T11:50:24;28.70;40.32
47861;HTU21D;33620;52.340;5.984;2022-07-24T11:52:50;28.76;39.53
47861;HTU21D;33620;52.340;5.984;2022-07-24T11:55:21;28.73;41.20
47861;HTU21D;33620;52.340;5.984;2022-07-24T11:57:49;28.82;39.89
47861;HTU21D;33620;52.340;5.984;2022-07-24T12:00:18;28.76;40.57
47861;HTU21D;33620;52.340;5.984;2022-07-24T12:02:45;28.82;40.71
47861;HTU21D;33620;52.340;5.984;2022-07-24T12:05:11;28.91;39.65
47861;HTU21D;33620;52.340;5.984;2022-07-24T12:07:37;28.78;38.84
47861;HTU21D;33620;52.340;5.984;2022-07-24T12:10:03;28.79;39.88
47861;HTU21D;33620;52.340;5.984;2022-07-24T12:12:31;28.83;38.90
47861;HTU21D;33620;52.340;5.984;2022-07-24T12:17:28;28.85;39.72
47861;HTU21D;33620;52.340;5.984;2022-07-24T12:19:56;28.86;39.86
47861;HTU21D;33620;52.340;5.984;2022-07-24T12:22:23;28.98;39.15
47861;HTU21D;33620;52.340;5.984;2022-07-24T12:24:50;29.04;40.52
47861;HTU21D;33620;52.340;5.984;2022-07-24T12:27:33;29.17;40.07
47861;HTU21D;33620;52.340;5.984;2022-07-24T12:29:58;29.28;39.65
47861;HTU21D;33620;52.340;5.984;2022-07-24T12:32:24;29.33;38.69
47861;HTU21D;33620;52.340;5.984;2022-07-24T12:34:51;29.28;39.27
47861;HTU21D;33620;52.340;5.984;2022-07-24T12:37:18;29.29;41.07
47861;HTU21D;33620;52.340;5.984;2022-07-24T12:39:52;29.41;41.89
47861;HTU21D;33620;52.340;5.984;2022-07-24T12:42:30;29.41;39.49
47861;HTU21D;33620;52.340;5.984;2022-07-24T12:45:06;29.33;38.26
47861;HTU21D;33620;52.340;5.984;2022-07-24T12:47:32;29.24;39.75
47861;HTU21D;33620;52.340;5.984;2022-07-24T12:49:58;29.36;41.28
47861;HTU21D;33620;52.340;5.984;2022-07-24T12:52:25;29.47;40.22
47861;HTU21D;33620;52.340;5.984;2022-07-24T12:54:52;29.57;39.58
47861;HTU21D;33620;52.340;5.984;2022-07-24T12:57:21;29.53;39.77
47861;HTU21D;33620;52.340;5.984;2022-07-24T12:59:49;29.57;38.78
47861;HTU21D;33620;52.340;5.984;2022-07-24T13:02:18;29.63;40.26
47861;HTU21D;33620;52.340;5.984;2022-07-24T13:04:49;29.67;39.17
47861;HTU21D;33620;52.340;5.984;2022-07-24T13:07:17;29.73;39.07
47861;HTU21D;33620;52.340;5.984;2022-07-24T13:09:43;29.68;39.22
47861;HTU21D;33620;52.340;5.984;2022-07-24T13:12:09;29.67;38.49
47861;HTU21D;33620;52.340;5.984;2022-07-24T13:14:35;29.65;39.36
47861;HTU21D;33620;52.340;5.984;2022-07-24T13:17:10;29.76;40.53
47861;HTU21D;33620;52.340;5.984;2022-07-24T13:19:41;29.88;40.65
47861;HTU21D;33620;52.340;5.984;2022-07-24T13:22:06;29.93;39.91
47861;HTU21D;33620;52.340;5.984;2022-07-24T13:24:32;29.95;40.07
47861;HTU21D;33620;52.340;5.984;2022-07-24T13:26:59;29.92;39.14
47861;HTU21D;33620;52.340;5.984;2022-07-24T13:29:25;29.96;39.27
47861;HTU21D;33620;52.340;5.984;2022-07-24T13:31:51;29.94;39.42
47861;HTU21D;33620;52.340;5.984;2022-07-24T13:34:16;29.96;39.65
47861;HTU21D;33620;52.340;5.984;2022-07-24T13:36:42;29.86;40.32
47861;HTU21D;33620;52.340;5.984;2022-07-24T13:39:11;29.87;39.68
47861;HTU21D;33620;52.340;5.984;2022-07-24T13:41:36;29.95;40.99
47861;HTU21D;33620;52.340;5.984;2022-07-24T13:44:04;30.13;42.62
47861;HTU21D;33620;52.340;5.984;2022-07-24T13:46:31;30.30;41.32
47861;HTU21D;33620;52.340;5.984;2022-07-24T13:48:56;30.28;40.39
47861;HTU21D;33620;52.340;5.984;2022-07-24T13:51:22;30.21;39.69
47861;HTU21D;33620;52.340;5.984;2022-07-24T13:53:47;30.30;41.46
47861;HTU21D;33620;52.340;5.984;2022-07-24T13:56:13;30.39;40.80
47861;HTU21D;33620;52.340;5.984;2022-07-24T13:58:38;30.47;40.36
47861;HTU21D;33620;52.340;5.984;2022-07-24T14:01:05;30.50;38.73
47861;HTU21D;33620;52.340;5.984;2022-07-24T14:03:32;30.47;39.69
47861;HTU21D;33620;52.340;5.984;2022-07-24T14:05:57;30.48;40.13
47861;HTU21D;33620;52.340;5.984;2022-07-24T14:08:23;30.55;39.72
47861;HTU21D;33620;52.340;5.984;2022-07-24T14:10:49;30.62;40.68
47861;HTU21D;33620;52.340;5.984;2022-07-24T14:13:14;30.69;39.63
47861;HTU21D;33620;52.340;5.984;2022-07-24T14:15:40;30.67;38.60
47861;HTU21D;33620;52.340;5.984;2022-07-24T14:18:05;30.62;40.49
47861;HTU21D;33620;52.340;5.984;2022-07-24T14:20:31;30.72;39.30
47861;HTU21D;33620;52.340;5.984;2022-07-24T14:22:56;30.74;38.45
47861;HTU21D;33620;52.340;5.984;2022-07-24T14:25:22;30.67;39.41
47861;HTU21D;33620;52.340;5.984;2022-07-24T14:27:47;30.78;40.23
47861;HTU21D;33620;52.340;5.984;2022-07-24T14:30:12;30.81;39.85
47861;HTU21D;33620;52.340;5.984;2022-07-24T14:32:38;30.64;39.81
47861;HTU21D;33620;52.340;5.984;2022-07-24T14:35:04;30.64;40.96
47861;HTU21D;33620;52.340;5.984;2022-07-24T14:37:33;30.79;40.65
47861;HTU21D;33620;52.340;5.984;2022-07-24T14:39:59;30.92;40.40
47861;HTU21D;33620;52.340;5.984;2022-07-24T14:42:24;30.95;40.04
47861;HTU21D;33620;52.340;5.984;2022-07-24T14:44:49;30.89;39.50
47861;HTU21D;33620;52.340;5.984;2022-07-24T14:47:16;30.90;40.63
47861;HTU21D;33620;52.340;5.984;2022-07-24T14:49:41;30.94;39.43
47861;HTU21D;33620;52.340;5.984;2022-07-24T14:52:07;31.00;39.52
47861;HTU21D;33620;52.340;5.984;2022-07-24T14:54:32;31.02;39.88
47861;HTU21D;33620;52.340;5.984;2022-07-24T14:56:57;31.11;40.71
47861;HTU21D;33620;52.340;5.984;2022-07-24T14:59:26;31.18;40.68
47861;HTU21D;33620;52.340;5.984;2022-07-24T15:01:51;31.22;40.53
47861;HTU21D;33620;52.340;5.984;2022-07-24T15:04:16;31.25;39.97
47861;HTU21D;33620;52.340;5.984;2022-07-24T15:06:42;31.27;39.68
47861;HTU21D;33620;52.340;5.984;2022-07-24T15:09:07;31.31;40.42
47861;HTU21D;33620;52.340;5.984;2022-07-24T15:11:33;31.29;38.69
47861;HTU21D;33620;52.340;5.984;2022-07-24T15:13:58;31.15;39.83
47861;HTU21D;33620;52.340;5.984;2022-07-24T15:16:23;31.22;39.82
47861;HTU21D;33620;52.340;5.984;2022-07-24T15:18:49;31.26;39.62
47861;HTU21D;33620;52.340;5.984;2022-07-24T15:21:14;31.23;38.03
47861;HTU21D;33620;52.340;5.984;2022-07-24T15:23:40;31.22;38.71
47861;HTU21D;33620;52.340;5.984;2022-07-24T15:26:05;31.27;38.69
47861;HTU21D;33620;52.340;5.984;2022-07-24T15:28:31;31.22;38.85
47861;HTU21D;33620;52.340;5.984;2022-07-24T15:30:56;31.25;39.84
47861;HTU21D;33620;52.340;5.984;2022-07-24T15:33:22;31.36;39.24
47861;HTU21D;33620;52.340;5.984;2022-07-24T15:35:48;31.42;39.24
47861;HTU21D;33620;52.340;5.984;2022-07-24T15:38:13;31.30;38.04